Time;durP1;ratioP1;P1;durP2;ratioP2;P2;SDS_P1;SDS_P2;PMS_P1;PMS_P2;Temp;Humidity;BMP_temperature;BMP_pressure;BME280_temperature;BME280_humidity;BME280_pressure;Samples;Min_cycle;Max_cycle;Signal;HPM_P1;HPM_P2
2021/03/23 00:00:45;;;;;;;15.97;8.27;;;7.70;1.00;;;;;;5075027;28;20416;-75
2021/03/23 00:03:21;;;;;;;19.73;8.93;;;7.70;1.00;;;;;;5074290;28;20414;-75
2021/03/23 00:05:47;;;;;;;23.57;9.67;;;;;;;;;;5067909;28;20429;-75
2021/03/23 00:08:44;;;;;;;19.43;8.50;;;7.60;1.00;;;;;;5061825;28;20825;-75
2021/03/23 00:11:24;;;;;;;19.20;9.57;;;7.60;1.00;;;;;;5032908;28;20914;-75
2021/03/23 00:13:50;;;;;;;18.90;8.60;;;;;;;;;;5009040;28;20765;-75
2021/03/23 00:16:19;;;;;;;15.70;8.20;;;7.60;1.00;;;;;;5012776;28;20883;-75
2021/03/23 00:18:46;;;;;;;17.37;8.10;;;;;;;;;;5012018;28;20412;-75
2021/03/23 00:21:13;;;;;;;17.40;8.93;;;7.50;1.00;;;;;;5012418;28;20388;-75
2021/03/23 00:23:40;;;;;;;19.70;9.37;;;7.50;1.00;;;;;;5013013;28;20970;-75
2021/03/23 00:26:07;;;;;;;17.97;8.83;;;7.50;1.00;;;;;;5012682;28;20419;-75
2021/03/23 00:28:33;;;;;;;21.13;9.03;;;;;;;;;;5012493;28;20444;-75
2021/03/23 00:30:59;;;;;;;18.90;9.00;;;;;;;;;;5012522;28;20427;-75
2021/03/23 00:33:25;;;;;;;15.33;7.97;;;;;;;;;;5021980;28;20407;-75
2021/03/23 00:35:57;;;;;;;17.83;8.70;;;7.50;1.00;;;;;;5031977;28;20825;-75
2021/03/23 00:38:23;;;;;;;29.57;9.97;;;7.50;1.00;;;;;;5031933;28;20435;-75
2021/03/23 00:40:50;;;;;;;22.17;8.77;;;7.40;1.00;;;;;;5032463;28;20435;-74
2021/03/23 00:43:16;;;;;;;20.33;9.03;;;7.40;1.00;;;;;;5023636;28;20439;-75
2021/03/23 00:45:43;;;;;;;17.77;9.17;;;7.40;1.00;;;;;;5012353;28;20400;-75
2021/03/23 00:48:12;;;;;;;20.77;8.60;;;7.40;1.00;;;;;;5037937;28;20176;-75
2021/03/23 00:50:38;;;;;;;18.90;8.67;;;;;;;;;;5053901;28;20440;-75
2021/03/23 00:53:04;;;;;;;14.07;7.30;;;;;;;;;;5054351;28;20419;-75
2021/03/23 00:55:30;;;;;;;20.33;9.13;;;;;;;;;;5068226;28;20500;-75
2021/03/23 00:57:56;;;;;;;17.27;7.87;;;;;;;;;;5074268;28;20512;-75
2021/03/23 01:00:23;;;;;;;21.03;9.00;;;7.30;1.00;;;;;;5073862;28;20845;-75
2021/03/23 01:02:49;;;;;;;23.20;8.70;;;7.40;1.00;;;;;;5073626;28;20422;-75
2021/03/23 01:05:17;;;;;;;17.27;9.03;;;7.30;1.00;;;;;;5071935;28;20425;-75
2021/03/23 01:07:43;;;;;;;16.00;7.90;;;;;;;;;;5066227;28;20508;-75
2021/03/23 01:10:11;;;;;;;25.63;9.83;;;7.30;1.00;;;;;;5066619;28;20954;-75
2021/03/23 01:12:37;;;;;;;19.50;9.67;;;;;;;;;;5054024;28;20563;-75
2021/03/23 01:15:06;;;;;;;19.83;9.13;;;7.30;1.00;;;;;;5053739;28;20421;-75
2021/03/23 01:17:32;;;;;;;20.07;9.30;;;;;;;;;;5053523;28;20437;-75
2021/03/23 01:19:58;;;;;;;19.50;9.40;;;;;;;;;;5054091;28;20908;-75
2021/03/23 01:22:24;;;;;;;20.37;8.83;;;;;;;;;;5063645;28;20462;-75
2021/03/23 01:24:50;;;;;;;16.30;8.20;;;;;;;;;;5073406;28;20463;-75
2021/03/23 01:27:16;;;;;;;19.23;8.60;;;;;;;;;;5073526;28;20420;-75
2021/03/23 01:29:42;;;;;;;21.13;9.37;;;;;;;;;;5073049;28;20445;-75
2021/03/23 01:32:08;;;;;;;16.37;7.73;;;7.20;1.00;;;;;;5053604;28;20494;-75
2021/03/23 01:34:34;;;;;;;18.73;9.57;;;;;;;;;;5053201;28;20460;-75
2021/03/23 01:37:00;;;;;;;19.83;9.60;;;;;;;;;;5062348;28;20824;-75
2021/03/23 01:39:26;;;;;;;19.27;9.07;;;;;;;;;;5073193;28;20476;-75
2021/03/23 01:41:52;;;;;;;21.10;9.53;;;;;;;;;;5056516;28;20432;-75
2021/03/23 01:44:18;;;;;;;26.07;9.93;;;;;;;;;;5057219;28;20527;-75
2021/03/23 01:46:49;;;;;;;20.57;8.87;;;7.10;1.00;;;;;;5073108;28;20389;-75
2021/03/23 01:49:30;;;;;;;19.13;8.47;;;7.10;1.00;;;;;;5072837;28;20831;-75
2021/03/23 01:52:07;;;;;;;19.27;8.60;;;7.10;1.00;;;;;;5059350;28;20421;-75
2021/03/23 01:54:46;;;;;;;20.37;8.50;;;7.00;1.00;;;;;;5072336;28;20904;-75
2021/03/23 01:57:14;;;;;;;17.00;8.77;;;7.10;1.00;;;;;;5071846;28;20436;-75
2021/03/23 01:59:44;;;;;;;17.60;7.83;;;7.10;1.00;;;;;;5072863;28;20454;-75
2021/03/23 02:02:11;;;;;;;21.20;7.93;;;7.10;1.00;;;;;;5056693;28;20426;-75
2021/03/23 02:04:37;;;;;;;18.00;7.97;;;7.10;1.00;;;;;;5052796;28;20395;-75
2021/03/23 02:07:03;;;;;;;17.67;9.37;;;7.10;1.00;;;;;;5070904;28;20436;-75
2021/03/23 02:09:32;;;;;;;20.63;8.63;;;7.10;1.00;;;;;;5071393;28;20281;-75
2021/03/23 02:12:04;;;;;;;24.33;9.10;;;7.10;1.00;;;;;;5072811;28;20418;-75
2021/03/23 02:14:34;;;;;;;13.60;7.07;;;7.10;1.00;;;;;;5072861;28;20749;-75
2021/03/23 02:17:19;;;;;;;18.77;7.70;;;7.10;1.00;;;;;;5072695;28;20393;-75
2021/03/23 02:19:45;;;;;;;22.57;8.20;;;;;;;;;;5072742;28;20408;-75
2021/03/23 02:22:38;;;;;;;18.10;8.27;;;7.10;1.00;;;;;;5057919;28;20457;-75
2021/03/23 02:25:14;;;;;;;21.60;8.80;;;7.00;1.00;;;;;;5052270;28;20430;-75
2021/03/23 02:27:41;;;;;;;22.10;8.63;;;7.00;1.00;;;;;;5052604;28;20402;-74
2021/03/23 02:30:21;;;;;;;21.77;9.03;;;7.00;1.00;;;;;;5052586;28;20438;-75
2021/03/23 02:32:47;;;;;;;16.70;7.23;;;;;;;;;;5054426;28;20964;-75
2021/03/23 02:35:14;;;;;;;18.83;8.57;;;;;;;;;;5072728;28;20507;-75
2021/03/23 02:37:40;;;;;;;21.73;8.63;;;;;;;;;;5072536;28;20800;-75
2021/03/23 02:40:08;;;;;;;20.20;8.23;;;7.00;1.00;;;;;;5072046;28;20389;-75
2021/03/23 02:42:34;;;;;;;26.43;8.50;;;;;;;;;;5075326;28;20753;-75
2021/03/23 02:45:00;;;;;;;19.60;8.40;;;;;;;;;;5076420;28;20452;-75
2021/03/23 02:47:26;;;;;;;22.03;8.00;;;;;;;;;;5076208;28;20458;-75
2021/03/23 02:49:52;;;;;;;15.10;7.80;;;;;;;;;;5076289;28;20433;-75
2021/03/23 02:52:19;;;;;;;22.00;8.77;;;7.00;1.00;;;;;;5057657;28;21022;-75
2021/03/23 02:54:45;;;;;;;13.87;7.17;;;;;;;;;;5066403;28;20417;-75
2021/03/23 02:57:11;;;;;;;18.57;8.30;;;;;;;;;;5074578;28;20425;-75
2021/03/23 02:59:37;;;;;;;15.40;7.03;;;;;;;;;;5056163;28;20405;-75
2021/03/23 03:02:05;;;;;;;16.60;7.00;;;7.00;1.00;;;;;;5056455;28;20406;-75
2021/03/23 03:04:32;;;;;;;16.53;8.70;;;7.00;1.00;;;;;;5056047;28;20449;-75
2021/03/23 03:06:58;;;;;;;13.23;6.30;;;;;;;;;;5070588;28;20933;-75
2021/03/23 03:09:24;;;;;;;16.63;7.93;;;;;;;;;;5068876;28;20506;-75
2021/03/23 03:11:51;;;;;;;18.33;7.93;;;7.00;1.00;;;;;;5075886;28;20386;-74
2021/03/23 03:14:18;;;;;;;21.40;8.27;;;;;;;;;;5076077;28;20385;-75
2021/03/23 03:16:44;;;;;;;18.87;7.17;;;;;;;;;;5075897;28;20393;-76
2021/03/23 03:19:10;;;;;;;18.77;7.87;;;;;;;;;;5068483;28;20414;-75
2021/03/23 03:21:36;;;;;;;19.90;7.60;;;;;;;;;;5055569;28;20485;-75
2021/03/23 03:24:02;;;;;;;12.60;6.23;;;;;;;;;;5065057;28;20504;-75
2021/03/23 03:26:28;;;;;;;13.70;6.50;;;;;;;;;;5075469;28;20401;-75
2021/03/23 03:28:54;;;;;;;18.43;8.73;;;;;;;;;;5072669;28;20445;-75
2021/03/23 03:31:26;;;;;;;15.93;7.30;;;6.90;1.00;;;;;;5055483;28;20753;-75
2021/03/23 03:33:53;;;;;;;15.30;7.57;;;6.90;1.00;;;;;;5055521;28;20415;-75
2021/03/23 03:36:20;;;;;;;20.70;8.90;;;6.90;1.00;;;;;;5055844;28;20418;-75
2021/03/23 03:38:47;;;;;;;19.60;7.27;;;;;;;;;;5055787;28;20768;-75
2021/03/23 03:41:13;;;;;;;21.30;6.47;;;6.90;1.00;;;;;;5055414;28;20477;-75
2021/03/23 03:43:40;;;;;;;16.40;7.50;;;6.80;1.00;;;;;;5057975;28;20526;-75
2021/03/23 03:46:06;;;;;;;16.77;7.50;;;;;;;;;;5075270;28;20390;-75
2021/03/23 03:48:32;;;;;;;20.40;8.17;;;;;;;;;;5075041;28;20413;-76
2021/03/23 03:50:58;;;;;;;24.13;8.80;;;;;;;;;;5075056;28;20413;-76
2021/03/23 03:53:24;;;;;;;18.70;8.03;;;;;;;;;;5073878;28;20394;-75
2021/03/23 03:55:51;;;;;;;19.83;7.10;;;6.80;1.00;;;;;;5075207;28;20875;-75
2021/03/23 03:58:18;;;;;;;19.47;6.83;;;;;;;;;;5071581;28;20425;-75
2021/03/23 04:00:46;;;;;;;21.20;7.50;;;6.80;1.00;;;;;;5074899;28;20405;-75
2021/03/23 04:03:17;;;;;;;16.67;7.50;;;6.90;1.00;;;;;;5075094;28;20405;-75
2021/03/23 04:05:45;;;;;;;18.10;7.67;;;6.80;1.00;;;;;;5074819;28;20462;-75
2021/03/23 04:08:13;;;;;;;21.37;9.00;;;6.80;1.00;;;;;;5074684;28;20806;-75
2021/03/23 04:10:41;;;;;;;20.03;8.80;;;6.80;1.00;;;;;;5065674;28;20816;-75
2021/03/23 04:13:07;;;;;;;18.67;7.80;;;;;;;;;;5075125;28;20731;-75
2021/03/23 04:15:41;;;;;;;20.13;7.80;;;6.90;1.00;;;;;;5074779;28;20394;-75
2021/03/23 04:18:09;;;;;;;16.67;7.20;;;6.80;1.00;;;;;;5074748;28;20895;-75
2021/03/23 04:20:35;;;;;;;19.90;8.90;;;;;;;;;;5061683;28;20410;-75
2021/03/23 04:23:06;;;;;;;18.90;7.10;;;6.80;1.00;;;;;;5074490;28;20402;-75
2021/03/23 04:25:33;;;;;;;17.53;7.50;;;6.80;1.00;;;;;;5074525;28;20402;-75
2021/03/23 04:28:00;;;;;;;17.13;8.23;;;6.80;1.00;;;;;;5074572;28;20777;-75
2021/03/23 04:30:27;;;;;;;24.77;10.23;;;6.80;1.00;;;;;;5074163;28;20452;-75
2021/03/23 04:32:56;;;;;;;16.73;7.73;;;;;;;;;;5074432;28;20419;-75
2021/03/23 04:35:48;;;;;;;18.90;8.10;;;6.80;1.00;;;;;;5074522;28;20884;-75
2021/03/23 04:38:34;;;;;;;16.80;7.83;;;6.90;1.00;;;;;;5031683;28;20439;-75
2021/03/23 04:41:03;;;;;;;22.57;8.10;;;6.90;1.00;;;;;;5032226;28;20490;-75
2021/03/23 04:43:32;;;;;;;20.20;8.60;;;6.90;1.00;;;;;;5032207;28;20439;-74
2021/03/23 04:45:59;;;;;;;22.87;9.10;;;;;;;;;;5022452;28;20870;-75
2021/03/23 04:48:25;;;;;;;20.83;9.00;;;;;;;;;;5019529;28;20933;-75
2021/03/23 04:50:51;;;;;;;20.27;8.43;;;;;;;;;;5031062;28;20407;-75
2021/03/23 04:53:25;;;;;;;21.83;8.43;;;6.90;1.00;;;;;;5031469;28;20442;-76
2021/03/23 04:55:52;;;;;;;20.20;8.17;;;6.90;1.00;;;;;;5025048;28;20431;-76
2021/03/23 04:58:18;;;;;;;22.50;7.72;;;6.90;1.00;;;;;;5019905;28;20435;-74
2021/03/23 05:00:44;;;;;;;16.43;7.43;;;;;;;;;;5028483;28;20196;-75
2021/03/23 05:03:17;;;;;;;23.47;8.67;;;6.90;1.00;;;;;;5031804;28;20506;-75
2021/03/23 05:05:43;;;;;;;17.20;7.70;;;;;;;;;;5030125;28;20504;-75
2021/03/23 05:08:09;;;;;;;18.33;8.27;;;;;;;;;;5031704;28;20864;-75
2021/03/23 05:10:34;;;;;;;15.30;7.90;;;6.90;1.00;;;;;;5031581;28;20817;-81
2021/03/23 05:13:02;;;;;;;19.13;7.30;;;;;;;;;;5031842;28;20400;-74
2021/03/23 05:15:28;;;;;;;15.70;7.50;;;;;;;;;;5056226;28;20187;-74
2021/03/23 05:17:54;;;;;;;21.57;8.67;;;;;;;;;;5073597;28;20426;-74
2021/03/23 05:20:20;;;;;;;15.70;7.70;;;;;;;;;;5072053;28;20502;-75
2021/03/23 05:22:46;;;;;;;22.60;9.00;;;;;;;;;;5073478;28;20402;-75
2021/03/23 05:25:13;;;;;;;22.20;9.80;;;6.80;1.00;;;;;;5071625;28;20750;-75
2021/03/23 05:27:39;;;;;;;18.00;7.83;;;;;;;;;;5056341;28;20823;-75
2021/03/23 05:30:08;;;;;;;16.57;8.23;;;6.90;1.00;;;;;;5057605;28;20454;-75
2021/03/23 05:32:35;;;;;;;18.23;8.03;;;6.90;1.00;;;;;;5070761;28;20448;-76
2021/03/23 05:35:02;;;;;;;32.13;9.67;;;6.90;1.00;;;;;;5073229;28;20513;-75
2021/03/23 05:37:28;;;;;;;25.27;9.90;;;;;;;;;;5073192;28;20410;-75
2021/03/23 05:39:54;;;;;;;18.03;8.07;;;;;;;;;;5073331;28;20390;-75
2021/03/23 05:42:40;;;;;;;21.23;9.10;;;6.90;1.00;;;;;;5073018;28;20860;-75
2021/03/23 05:45:33;;;;;;;26.10;9.00;;;6.90;1.00;;;;;;5072515;28;20444;-75
2021/03/23 05:48:20;;;;;;;19.07;9.07;;;7.00;1.00;;;;;;5069575;28;20402;-75
2021/03/23 05:50:58;;;;;;;23.80;8.37;;;7.00;1.00;;;;;;5072669;28;20506;-75
2021/03/23 05:53:50;;;;;;;24.47;8.97;;;7.10;1.00;;;;;;5071496;28;20515;-75
2021/03/23 05:56:16;;;;;;;23.27;8.10;;;;;;;;;;5068660;28;20800;-75
2021/03/23 05:58:50;;;;;;;20.50;8.90;;;7.10;1.00;;;;;;5059830;28;20429;-74
2021/03/23 06:01:30;;;;;;;23.07;9.43;;;7.10;1.00;;;;;;5059532;28;20434;-74
2021/03/23 06:04:23;;;;;;;20.80;8.33;;;7.10;1.00;;;;;;5065651;28;20405;-74
2021/03/23 06:06:59;;;;;;;25.33;9.97;;;7.20;1.00;;;;;;5072621;28;20444;-75
2021/03/23 06:09:36;;;;;;;22.27;9.80;;;7.20;1.00;;;;;;5066309;28;20490;-75
2021/03/23 06:12:45;;;;;;;23.17;9.53;;;7.20;1.00;;;;;;5067163;28;20409;-75
2021/03/23 06:15:16;;;;;;;22.90;9.20;;;7.30;1.00;;;;;;5071372;28;20573;-75
2021/03/23 06:17:54;;;;;;;24.83;9.97;;;7.30;1.00;;;;;;5071704;28;20421;-75
2021/03/23 06:20:44;;;;;;;22.87;9.23;;;7.40;1.00;;;;;;5066547;28;20434;-75
2021/03/23 06:23:47;;;;;;;29.13;9.47;;;7.40;1.00;;;;;;5080892;28;20408;-75
2021/03/23 06:26:28;;;;;;;16.80;8.07;;;7.40;1.00;;;;;;5087081;28;20804;-75
2021/03/23 06:29:31;;;;;;;19.60;8.50;;;7.40;1.00;;;;;;5052598;28;20442;-74
2021/03/23 06:32:18;;;;;;;22.10;8.90;;;7.50;1.00;;;;;;5052410;28;20412;-75
2021/03/23 06:34:44;;;;;;;26.77;9.90;;;7.60;1.00;;;;;;5052536;28;20418;-75
2021/03/23 06:37:26;;;;;;;24.40;9.90;;;7.70;1.00;;;;;;5060791;28;21059;-75
2021/03/23 06:39:53;;;;;;;21.53;9.83;;;;;;;;;;5068532;28;20429;-75
2021/03/23 06:42:36;;;;;;;27.83;10.37;;;7.80;1.00;;;;;;5071542;28;20425;-75
2021/03/23 06:45:33;;;;;;;27.90;10.70;;;7.90;1.00;;;;;;5072764;28;20468;-74
2021/03/23 06:48:25;;;;;;;23.40;10.20;;;8.00;1.00;;;;;;5051258;28;20422;-75
2021/03/23 06:51:05;;;;;;;25.20;9.83;;;7.90;1.00;;;;;;5052290;28;20488;-75
2021/03/23 06:53:31;;;;;;;26.93;8.97;;;;;;;;;;5071040;28;20463;-75
2021/03/23 06:56:17;;;;;;;24.40;9.57;;;8.00;1.00;;;;;;5072288;28;20421;-75
2021/03/23 06:58:44;;;;;;;23.30;10.00;;;;;;;;;;5072260;28;20401;-76
2021/03/23 07:01:12;;;;;;;21.97;9.60;;;8.00;1.00;;;;;;5067768;28;20455;-75
2021/03/23 07:03:38;;;;;;;25.13;8.67;;;8.00;1.00;;;;;;5066815;28;20935;-75
2021/03/23 07:06:31;;;;;;;21.83;10.17;;;8.00;1.00;;;;;;5072261;28;20393;-75
2021/03/23 07:09:22;;;;;;;32.93;11.27;;;8.00;1.00;;;;;;5071712;28;20460;-77
2021/03/23 07:12:05;;;;;;;56.73;11.57;;;8.00;1.00;;;;;;5072012;28;20425;-75
2021/03/23 07:14:39;;;;;;;23.40;10.67;;;8.00;1.00;;;;;;5072469;28;20590;-75
2021/03/23 07:17:18;;;;;;;28.00;10.53;;;8.10;1.00;;;;;;5072097;28;20389;-75
2021/03/23 07:19:47;;;;;;;20.83;9.97;;;8.00;1.00;;;;;;5072008;28;20512;-75
2021/03/23 07:22:33;;;;;;;30.63;10.20;;;8.00;1.00;;;;;;5069854;28;20583;-75
2021/03/23 07:25:00;;;;;;;30.30;11.23;;;;;;;;;;5072050;28;20895;-75
2021/03/23 07:27:27;;;;;;;27.53;12.00;;;;;;;;;;5061372;28;20422;-75
2021/03/23 07:30:27;;;;;;;26.77;10.70;;;8.20;1.00;;;;;;5056142;28;20477;-74
2021/03/23 07:33:00;;;;;;;26.47;11.40;;;8.20;1.00;;;;;;5055933;28;20422;-75
2021/03/23 07:35:39;;;;;;;25.07;11.33;;;8.30;1.00;;;;;;5068155;28;20429;-75
2021/03/23 07:38:51;;;;;;;27.47;12.23;;;8.30;1.00;;;;;;5075379;28;20401;-75
2021/03/23 07:41:41;;;;;;;31.13;12.70;;;8.30;1.00;;;;;;4993735;28;20520;-75
2021/03/23 07:44:15;;;;;;;25.67;10.90;;;8.40;1.00;;;;;;4992163;28;20923;-75
2021/03/23 07:46:47;;;;;;;29.87;12.00;;;8.40;1.00;;;;;;4993862;28;20425;-75
2021/03/23 07:49:31;;;;;;;20.97;10.13;;;8.40;1.00;;;;;;4993025;28;20563;-75
2021/03/23 07:52:12;;;;;;;29.03;12.63;;;8.40;1.00;;;;;;4993606;28;20427;-75
2021/03/23 07:54:38;;;;;;;37.63;12.60;;;;;;;;;;4990817;28;20434;-75
2021/03/23 07:57:34;;;;;;;24.83;10.93;;;8.50;1.00;;;;;;4993648;28;20397;-75
2021/03/23 08:00:18;;;;;;;23.37;10.60;;;8.50;1.00;;;;;;4993982;28;20459;-75
2021/03/23 08:02:56;;;;;;;26.30;11.73;;;8.60;1.00;;;;;;4987771;28;20920;-75
2021/03/23 08:05:35;;;;;;;28.73;12.00;;;8.60;1.00;;;;;;4993380;28;20483;-76
2021/03/23 08:08:16;;;;;;;25.47;10.60;;;8.70;1.00;;;;;;4983706;28;20523;-75
2021/03/23 08:11:10;;;;;;;24.90;10.97;;;8.70;1.00;;;;;;4992611;28;20870;-75
2021/03/23 08:13:56;;;;;;;27.00;11.40;;;8.80;1.00;;;;;;4993320;28;20756;-75
2021/03/23 08:16:36;;;;;;;27.70;11.33;;;8.80;1.00;;;;;;4993416;28;20911;-75
2021/03/23 08:19:29;;;;;;;27.53;11.80;;;8.90;1.00;;;;;;5064666;28;20440;-76
2021/03/23 08:22:38;;;;;;;27.10;11.93;;;8.80;1.00;;;;;;5073270;28;20401;-75
2021/03/23 08:25:25;;;;;;;23.30;10.30;;;8.90;1.00;;;;;;5074621;28;20416;-75
2021/03/23 08:27:51;;;;;;;25.57;10.80;;;;;;;;;;5073907;28;20506;-75
2021/03/23 08:30:34;;;;;;;24.63;10.60;;;9.00;1.00;;;;;;5073865;28;20461;-75
2021/03/23 08:33:22;;;;;;;32.00;12.23;;;8.90;1.00;;;;;;5071385;28;20428;-75
2021/03/23 08:36:12;;;;;;;24.80;10.87;;;9.00;1.00;;;;;;5074444;28;20933;-75
2021/03/23 08:38:47;;;;;;;35.60;11.67;;;8.80;1.00;;;;;;5055584;28;20426;-75
2021/03/23 08:41:24;;;;;;;26.47;11.20;;;8.80;1.00;;;;;;5058790;28;20425;-75
2021/03/23 08:43:51;;;;;;;28.60;11.87;;;8.90;1.00;;;;;;5067237;28;20440;-75
2021/03/23 08:46:27;;;;;;;28.77;11.60;;;8.90;1.00;;;;;;5074612;28;20756;-75
2021/03/23 08:49:06;;;;;;;26.13;11.27;;;8.90;1.00;;;;;;5073882;28;20396;-75
2021/03/23 08:51:45;;;;;;;17.40;8.50;;;8.90;1.00;;;;;;5073181;28;20780;-75
2021/03/23 08:54:11;;;;;;;23.90;11.57;;;;;;;;;;5073917;28;20446;-76
2021/03/23 08:56:45;;;;;;;29.23;11.33;;;9.00;1.00;;;;;;5073960;28;20499;-75
2021/03/23 08:59:30;;;;;;;33.83;10.73;;;8.90;1.00;;;;;;5072719;28;20904;-75
2021/03/23 09:01:56;;;;;;;28.80;12.30;;;;;;;;;;5071977;28;20429;-75
2021/03/23 09:04:22;;;;;;;24.33;11.03;;;;;;;;;;5065040;28;20792;-74
2021/03/23 09:07:03;;;;;;;26.97;11.90;;;9.00;1.00;;;;;;5068615;28;20607;-75
2021/03/23 09:09:36;;;;;;;20.90;9.53;;;9.00;1.00;;;;;;5073543;28;20457;-75
2021/03/23 09:12:02;;;;;;;23.73;11.00;;;;;;;;;;5073647;28;20397;-75
2021/03/23 09:14:29;;;;;;;24.20;11.33;;;;;;;;;;5073456;28;20421;-76
2021/03/23 09:16:57;;;;;;;25.00;10.90;;;8.90;1.00;;;;;;5073240;28;20843;-75
2021/03/23 09:19:42;;;;;;;22.97;10.83;;;9.10;1.00;;;;;;5073674;28;20429;-75
2021/03/23 09:22:28;;;;;;;25.17;11.17;;;9.20;1.00;;;;;;5073526;28;20413;-75
2021/03/23 09:25:17;;;;;;;23.33;10.20;;;9.30;1.00;;;;;;5072817;28;20460;-75
2021/03/23 09:27:48;;;;;;;24.33;11.13;;;9.30;1.00;;;;;;4975571;28;20801;-75
2021/03/23 09:30:38;;;;;;;27.80;11.47;;;9.40;1.00;;;;;;4988128;28;20507;-74
2021/03/23 09:33:27;;;;;;;30.30;11.97;;;9.50;1.00;;;;;;4984572;28;20440;-75
2021/03/23 09:36:07;;;;;;;30.00;10.57;;;9.60;1.00;;;;;;4975014;28;20440;-75
2021/03/23 09:38:36;;;;;;;24.10;9.80;;;9.60;1.00;;;;;;4991905;28;21102;-75
2021/03/23 09:41:05;;;;;;;24.43;10.70;;;9.70;1.00;;;;;;4991743;28;20451;-75
2021/03/23 09:43:38;;;;;;;22.90;10.27;;;9.70;1.00;;;;;;4991624;28;20440;-75
2021/03/23 09:46:15;;;;;;;23.57;10.27;;;9.90;1.00;;;;;;4992027;28;20508;-74
2021/03/23 09:48:47;;;;;;;23.37;10.47;;;9.90;1.00;;;;;;4991325;28;20836;-75
2021/03/23 09:51:46;;;;;;;30.10;10.90;;;9.90;1.00;;;;;;4990326;28;20448;-75
2021/03/23 09:54:41;;;;;;;25.23;11.17;;;9.80;1.00;;;;;;4955916;28;20413;-75
2021/03/23 09:57:19;;;;;;;21.80;10.10;;;9.90;1.00;;;;;;4895731;29;20909;-75
2021/03/23 09:59:48;;;;;;;20.90;10.17;;;10.00;1.00;;;;;;4913258;29;20491;-75
2021/03/23 10:02:29;;;;;;;24.63;11.17;;;10.00;1.00;;;;;;4913949;29;20425;-75
2021/03/23 10:04:55;;;;;;;26.57;11.40;;;;;;;;;;4956495;28;20523;-75
2021/03/23 10:07:26;;;;;;;21.63;10.20;;;10.30;1.00;;;;;;4991025;28;20999;-75
2021/03/23 10:09:52;;;;;;;26.90;10.30;;;;;;;;;;4990479;28;20567;-74
2021/03/23 10:12:31;;;;;;;25.70;10.50;;;10.40;1.00;;;;;;4974776;28;20426;-74
2021/03/23 10:14:57;;;;;;;24.20;10.30;;;;;;;;;;4997306;28;20518;-75
2021/03/23 10:17:25;;;;;;;22.27;11.10;;;10.60;1.00;;;;;;5011129;28;20491;-75
2021/03/23 10:19:58;;;;;;;16.60;7.90;;;10.70;1.00;;;;;;5010769;28;20408;-75
2021/03/23 10:22:35;;;;;;;22.60;10.00;;;10.70;1.00;;;;;;5010381;28;20427;-75
2021/03/23 10:25:03;;;;;;;22.27;10.43;;;10.50;1.00;;;;;;5010545;28;20404;-75
2021/03/23 10:27:31;;;;;;;22.60;9.80;;;10.70;1.00;;;;;;4999409;28;20486;-75
2021/03/23 10:30:12;;;;;;;19.10;9.63;;;10.80;1.00;;;;;;4991010;28;20455;-75
2021/03/23 10:32:48;;;;;;;27.97;9.97;;;10.80;1.00;;;;;;4991490;28;20468;-75
2021/03/23 10:35:45;;;;;;;28.70;11.20;;;10.90;1.00;;;;;;5072671;28;20474;-75
2021/03/23 10:38:38;;;;;;;26.67;10.53;;;11.00;1.00;;;;;;5072782;28;20793;-75
2021/03/23 10:41:16;;;;;;;24.53;10.00;;;11.20;1.00;;;;;;5074239;28;20450;-75
2021/03/23 10:43:42;;;;;;;23.70;11.47;;;;;;;;;;5072271;28;20437;-75
2021/03/23 10:46:28;;;;;;;24.80;10.37;;;11.20;1.00;;;;;;5072706;28;20462;-75
2021/03/23 10:48:54;;;;;;;24.93;11.30;;;;;;;;;;5072342;28;20847;-75
2021/03/23 10:51:24;;;;;;;22.37;10.70;;;11.50;1.00;;;;;;5072679;28;20389;-75
2021/03/23 10:54:11;;;;;;;20.97;10.37;;;11.70;1.00;;;;;;5071294;28;20433;-75
2021/03/23 10:56:45;;;;;;;28.10;11.97;;;11.70;1.00;;;;;;5072399;28;20397;-75
2021/03/23 10:59:14;;;;;;;26.37;10.90;;;11.60;1.00;;;;;;5072239;28;20462;-75
2021/03/23 11:02:19;;;;;;;25.13;10.90;;;11.60;1.00;;;;;;5071316;28;20420;-75
2021/03/23 11:04:56;;;;;;;26.60;11.20;;;11.60;1.00;;;;;;5061185;28;20403;-75
2021/03/23 11:07:25;;;;;;;25.87;11.10;;;11.60;1.00;;;;;;5075451;28;20407;-75
2021/03/23 11:09:52;;;;;;;26.87;10.73;;;11.70;1.00;;;;;;5071469;28;20552;-75
2021/03/23 11:12:18;;;;;;;24.60;10.97;;;;;;;;;;5074242;28;20833;-75
2021/03/23 11:14:45;;;;;;;23.67;9.53;;;;;;;;;;5068409;28;20403;-76
2021/03/23 11:17:18;;;;;;;21.27;10.03;;;11.30;1.00;;;;;;5072496;28;20457;-76
2021/03/23 11:19:48;;;;;;;19.70;9.83;;;;;;;;;;5075499;28;20416;-79
2021/03/23 11:22:22;;;;;;;29.03;11.27;;;11.20;1.00;;;;;;5075677;28;20401;-79
2021/03/23 11:24:48;;;;;;;20.40;10.10;;;11.10;1.00;;;;;;5075697;28;20406;-79
2021/03/23 11:27:14;;;;;;;23.47;10.73;;;11.00;1.00;;;;;;5075495;28;20413;-79
2021/03/23 11:29:40;;;;;;;23.03;10.23;;;;;;;;;;5072149;28;20506;-75
2021/03/23 11:32:06;;;;;;;25.00;11.27;;;;;;;;;;5068057;28;20508;-75
2021/03/23 11:34:32;;;;;;;23.57;10.10;;;;;;;;;;5073414;28;20416;-76
2021/03/23 11:36:58;;;;;;;24.70;10.90;;;11.10;1.00;;;;;;5078986;28;20696;-75
2021/03/23 11:39:24;;;;;;;23.00;10.33;;;;;;;;;;5078218;28;20432;-75
2021/03/23 11:41:58;;;;;;;27.93;11.77;;;11.20;1.00;;;;;;5064533;28;20185;-75
2021/03/23 11:44:30;;;;;;;21.47;9.20;;;11.30;1.00;;;;;;5055303;28;20480;-75
2021/03/23 11:47:06;;;;;;;24.73;10.70;;;11.30;1.00;;;;;;5055421;28;20440;-75
2021/03/23 11:49:43;;;;;;;24.10;9.63;;;11.40;1.00;;;;;;5070973;28;20834;-75
2021/03/23 11:52:10;;;;;;;17.40;9.37;;;11.50;1.00;;;;;;5074064;28;20896;-75
2021/03/23 11:54:36;;;;;;;24.13;10.83;;;11.50;1.00;;;;;;5075233;28;20527;-75
2021/03/23 11:57:02;;;;;;;24.87;10.73;;;11.40;1.00;;;;;;5071379;28;20505;-75
2021/03/23 11:59:28;;;;;;;24.37;10.10;;;11.50;1.00;;;;;;5055135;28;20190;-75
2021/03/23 12:01:54;;;;;;;25.03;10.43;;;;;;;;;;5059296;28;20424;-75
2021/03/23 12:04:20;;;;;;;23.17;9.57;;;11.40;1.00;;;;;;5054845;28;20478;-75
2021/03/23 12:06:46;;;;;;;18.73;10.23;;;;;;;;;;5073288;28;20429;-75
2021/03/23 12:09:22;;;;;;;26.27;11.07;;;11.40;1.00;;;;;;5073608;28;20461;-75
2021/03/23 12:12:08;;;;;;;20.00;9.90;;;11.50;1.00;;;;;;5067977;28;20499;-75
2021/03/23 12:14:55;;;;;;;23.57;10.20;;;11.60;1.00;;;;;;5063571;28;20448;-75
2021/03/23 12:17:21;;;;;;;27.20;10.03;;;11.80;1.00;;;;;;5075169;28;20507;-74
2021/03/23 12:19:59;;;;;;;25.87;10.27;;;12.00;1.00;;;;;;5074727;28;20393;-75
2021/03/23 12:22:25;;;;;;;21.87;9.67;;;12.20;1.00;;;;;;5073062;28;20413;-75
2021/03/23 12:24:51;;;;;;;19.20;10.10;;;;;;;;;;5059413;28;20825;-75
2021/03/23 12:27:18;;;;;;;24.53;11.17;;;12.10;1.00;;;;;;5054798;28;20468;-75
2021/03/23 12:29:44;;;;;;;20.63;10.00;;;;;;;;;;5068877;28;20480;-75
2021/03/23 12:32:17;;;;;;;26.60;11.70;;;12.20;1.00;;;;;;5074419;28;20401;-75
2021/03/23 12:34:44;;;;;;;18.77;9.27;;;12.00;1.00;;;;;;5074390;28;20512;-75
2021/03/23 12:37:12;;;;;;;21.60;9.20;;;12.40;1.00;;;;;;5074258;28;20449;-75
2021/03/23 12:39:38;;;;;;;21.80;10.07;;;12.60;1.00;;;;;;5074193;28;20421;-75
2021/03/23 12:42:05;;;;;;;22.57;10.87;;;12.80;1.00;;;;;;5074164;28;20423;-75
2021/03/23 12:44:31;;;;;;;19.90;9.20;;;12.70;1.00;;;;;;5074111;28;20426;-75
2021/03/23 12:46:59;;;;;;;22.80;10.40;;;13.00;1.00;;;;;;5074003;28;20501;-74
2021/03/23 12:49:25;;;;;;;24.13;10.60;;;13.00;1.00;;;;;;5073975;28;20191;-75
2021/03/23 12:51:57;;;;;;;21.90;10.03;;;12.90;1.00;;;;;;5074269;28;20730;-75
2021/03/23 12:54:37;;;;;;;26.23;10.30;;;13.10;1.00;;;;;;5071847;28;20183;-74
2021/03/23 12:57:12;;;;;;;24.60;10.50;;;13.40;1.00;;;;;;5064990;28;20775;-75
2021/03/23 12:59:38;;;;;;;24.50;10.20;;;13.50;1.00;;;;;;5073924;28;20380;-75
2021/03/23 13:02:07;;;;;;;21.87;9.87;;;13.40;1.00;;;;;;5073922;28;20741;-75
2021/03/23 13:04:33;;;;;;;23.47;9.90;;;13.20;1.00;;;;;;5073811;28;20164;-75
2021/03/23 13:06:59;;;;;;;27.10;11.10;;;13.20;1.00;;;;;;5072069;28;20433;-75
2021/03/23 13:09:26;;;;;;;16.43;8.63;;;13.40;1.00;;;;;;5070691;28;20202;-75
2021/03/23 13:11:53;;;;;;;17.63;8.73;;;13.50;1.00;;;;;;5073558;28;20400;-75
2021/03/23 13:14:28;;;;;;;19.90;9.30;;;13.70;1.00;;;;;;5072284;28;20395;-75
2021/03/23 13:16:55;;;;;;;15.40;7.60;;;13.80;1.00;;;;;;5073523;28;20445;-75
2021/03/23 13:19:23;;;;;;;17.93;8.40;;;13.50;1.00;;;;;;5073811;28;20486;-75
2021/03/23 13:22:00;;;;;;;14.40;7.60;;;13.60;1.00;;;;;;5071499;28;20407;-75
2021/03/23 13:24:34;;;;;;;17.23;7.90;;;13.60;1.00;;;;;;5073292;28;20387;-75
2021/03/23 13:27:25;;;;;;;15.73;7.50;;;13.80;1.00;;;;;;5056849;28;20452;-75
2021/03/23 13:29:56;;;;;;;14.43;7.30;;;13.80;1.00;;;;;;5061075;28;20833;-75
2021/03/23 13:32:24;;;;;;;15.93;7.30;;;13.80;1.00;;;;;;5059385;28;20499;-74
2021/03/23 13:34:50;;;;;;;17.40;7.53;;;13.70;1.00;;;;;;5072502;28;20428;-75
2021/03/23 13:37:25;;;;;;;15.03;7.33;;;13.70;1.00;;;;;;5053208;28;20394;-75
2021/03/23 13:39:56;;;;;;;16.13;7.93;;;13.40;1.00;;;;;;5053188;28;20477;-76
2021/03/23 13:42:30;;;;;;;17.80;7.47;;;13.50;1.00;;;;;;5053214;28;20375;-76
2021/03/23 13:45:03;;;;;;;15.83;7.30;;;13.40;1.00;;;;;;5058883;28;20448;-76